Time;durP1;ratioP1;P1;durP2;ratioP2;P2;SDS_P1;SDS_P2;PMS_P1;PMS_P2;Temp;Humidity;BMP_temperature;BMP_pressure;BME280_temperature;BME280_humidity;BME280_pressure;Samples;Min_cycle;Max_cycle;Signal;HPM_P1;HPM_P2
2022/07/15 00:00:15;;;;;;;;;;;;;;;25.40;53.42;101303.13;5063236;28;19912;-85
2022/07/15 00:02:40;;;;;;;;;;;;;;;25.39;53.18;101304.88;5066731;28;19918;-85
2022/07/15 00:05:06;;;;;;;;;;;;;;;25.40;53.05;101305.78;5083029;28;19919;-85
2022/07/15 00:07:32;;;;;;;;;;;;;;;25.37;53.58;101303.09;5078090;28;19962;-85
2022/07/15 00:10:15;;;;;;;;;;;;;;;25.37;53.25;101303.97;5062983;28;20283;-86
2022/07/15 00:12:41;;;;;;;;;;;;;;;25.33;53.46;101299.53;5073663;28;19913;-86
2022/07/15 00:15:07;;;;;;;;;;;;;;;25.36;53.28;101299.53;5051724;28;19912;-86
2022/07/15 00:17:33;;;;;;;;;;;;;;;25.37;53.23;101297.75;5073510;28;19944;-85
2022/07/15 00:19:58;;;;;;;;;;;;;;;25.37;53.13;101300.44;5055919;28;20417;-87
2022/07/15 00:22:24;;;;;;;;;;;;;;;25.35;52.92;101289.72;5072003;28;19912;-86
2022/07/15 00:24:49;;;;;;;;;;;;;;;25.30;53.03;101288.84;5073706;28;19951;-86
2022/07/15 00:27:15;;;;;;;;;;;;;;;25.31;53.19;101287.94;5072030;28;19913;-85
2022/07/15 00:29:40;;;;;;;;;;;;;;;25.32;52.96;101289.72;5055717;28;19912;-86
2022/07/15 00:32:06;;;;;;;;;;;;;;;25.29;53.18;101287.03;5059904;28;20016;-85
2022/07/15 00:34:31;;;;;;;;;;;;;;;25.30;52.96;101286.16;5070545;28;20401;-85
2022/07/15 00:36:56;;;;;;;;;;;;;;;25.30;52.88;101288.84;5065603;28;19923;-85
2022/07/15 00:39:22;;;;;;;;;;;;;;;25.27;53.27;101287.94;5057950;28;20290;-86
2022/07/15 00:41:47;;;;;;;;;;;;;;;25.27;53.01;101277.22;5057840;28;20313;-85
2022/07/15 00:44:13;;;;;;;;;;;;;;;25.30;53.08;101277.25;5052627;28;19935;-85
2022/07/15 00:46:39;;;;;;;;;;;;;;;25.24;53.16;101274.56;5042705;28;19916;-86
2022/07/15 00:49:06;;;;;;;;;;;;;;;25.27;52.93;101279.91;5054275;28;19919;-86
2022/07/15 00:51:37;;;;;;;;;;;;;;;25.26;52.99;101272.78;5070871;28;19912;-86
2022/07/15 00:54:06;;;;;;;;;;;;;;;25.25;52.69;101269.25;5083967;28;20296;-86
2022/07/15 00:56:33;;;;;;;;;;;;;;;25.21;52.97;101275.47;5059552;28;20355;-86
2022/07/15 00:58:59;;;;;;;;;;;;;;;25.18;52.90;101267.38;5066450;28;19999;-85
2022/07/15 01:01:25;;;;;;;;;;;;;;;25.21;53.25;101269.19;5056637;28;20373;-86
2022/07/15 01:03:50;;;;;;;;;;;;;;;25.17;53.07;101265.63;5068273;28;20010;-86
2022/07/15 01:06:16;;;;;;;;;;;;;;;25.14;52.89;101261.13;5059422;28;20378;-86
2022/07/15 01:08:41;;;;;;;;;;;;;;;25.14;52.75;101266.47;5068904;28;20458;-85
2022/07/15 01:11:06;;;;;;;;;;;;;;;25.13;52.88;101259.38;5082975;28;20022;-85
2022/07/15 01:13:32;;;;;;;;;;;;;;;25.16;52.65;101266.50;5055952;28;20382;-84
2022/07/15 01:15:57;;;;;;;;;;;;;;;25.15;52.66;101249.56;5084984;28;19935;-85
2022/07/15 01:18:23;;;;;;;;;;;;;;;25.14;52.53;101252.22;5092246;28;20312;-84
2022/07/15 01:20:48;;;;;;;;;;;;;;;25.15;52.77;101254.03;5091438;28;19935;-85
2022/07/15 01:23:14;;;;;;;;;;;;;;;25.14;53.07;101255.78;5073580;28;19912;-85
2022/07/15 01:25:40;;;;;;;;;;;;;;;25.15;52.82;101252.25;5073720;28;19916;-85
2022/07/15 01:28:05;;;;;;;;;;;;;;;25.11;53.07;101247.78;5079781;28;20378;-86
2022/07/15 01:30:31;;;;;;;;;;;;;;;25.11;52.86;101245.09;5067289;28;19981;-86
2022/07/15 01:32:56;;;;;;;;;;;;;;;25.13;52.61;101245.13;5062932;28;20439;-86
2022/07/15 01:35:22;;;;;;;;;;;;;;;25.13;52.84;101248.69;5091441;28;20014;-85
2022/07/15 01:37:47;;;;;;;;;;;;;;;25.13;52.57;101253.13;5066734;28;19916;-85
2022/07/15 01:40:13;;;;;;;;;;;;;;;25.11;52.61;101247.78;5090644;28;20419;-86
2022/07/15 01:42:38;;;;;;;;;;;;;;;25.10;52.97;101242.41;5091482;28;19912;-86
2022/07/15 01:45:08;;;;;;;;;;;;;;;25.10;52.85;101242.41;5073317;28;20301;-85
2022/07/15 01:47:34;;;;;;;;;;;;;;;25.08;52.57;101241.53;5073474;28;20419;-86
2022/07/15 01:49:59;;;;;;;;;;;;;;;25.09;52.81;101254.91;5091566;28;19969;-86
2022/07/15 01:52:25;;;;;;;;;;;;;;;25.07;52.45;101247.78;5073117;28;19916;-86
2022/07/15 01:54:50;;;;;;;;;;;;;;;25.07;52.53;101237.09;5073490;28;19980;-84
2022/07/15 01:57:16;;;;;;;;;;;;;;;25.07;52.56;101240.66;5091445;28;19978;-86
2022/07/15 01:59:41;;;;;;;;;;;;;;;25.06;53.10;101249.56;5073081;28;19912;-86
2022/07/15 02:02:06;;;;;;;;;;;;;;;25.05;52.70;101245.09;5063856;28;19913;-85
2022/07/15 02:04:32;;;;;;;;;;;;;;;25.06;52.62;101238.88;5093803;28;19912;-86
2022/07/15 02:06:57;;;;;;;;;;;;;;;25.04;52.49;101242.41;5076981;28;19912;-85
2022/07/15 02:09:23;;;;;;;;;;;;;;;25.04;52.28;101240.66;5094782;28;19912;-86
2022/07/15 02:11:48;;;;;;;;;;;;;;;25.04;52.59;101243.31;5086579;28;20117;-83
2022/07/15 02:14:13;;;;;;;;;;;;;;;25.02;52.51;101239.75;5074890;28;20386;-83
2022/07/15 02:16:39;;;;;;;;;;;;;;;25.05;52.48;101236.19;5064674;28;19927;-86
2022/07/15 02:19:04;;;;;;;;;;;;;;;25.03;52.42;101235.31;5058404;28;19919;-85
2022/07/15 02:21:30;;;;;;;;;;;;;;;25.04;52.51;101243.31;5085981;28;19919;-85
2022/07/15 02:23:57;;;;;;;;;;;;;;;25.03;52.58;101236.19;5090264;28;20333;-85
2022/07/15 02:26:23;;;;;;;;;;;;;;;25.02;52.50;101238.84;5077150;28;19923;-84
2022/07/15 02:28:48;;;;;;;;;;;;;;;24.99;52.62;101235.28;5062606;28;19916;-84
2022/07/15 02:31:13;;;;;;;;;;;;;;;24.96;52.53;101240.63;5094825;28;20364;-84
2022/07/15 02:33:39;;;;;;;;;;;;;;;24.92;52.64;101228.16;5094314;28;20425;-84
2022/07/15 02:36:05;;;;;;;;;;;;;;;25.00;52.75;101246.88;5062713;28;19921;-86
2022/07/15 02:38:30;;;;;;;;;;;;;;;24.98;52.35;101244.19;5058116;28;19965;-86
2022/07/15 02:40:56;;;;;;;;;;;;;;;24.97;52.33;101242.41;5094532;28;19918;-85
2022/07/15 02:43:21;;;;;;;;;;;;;;;24.98;52.67;101238.84;5094657;28;19936;-86
2022/07/15 02:45:47;;;;;;;;;;;;;;;24.93;52.33;101239.72;5088711;28;19912;-86
2022/07/15 02:48:12;;;;;;;;;;;;;;;24.96;52.56;101229.94;5073147;28;19920;-86
2022/07/15 02:50:38;;;;;;;;;;;;;;;24.94;52.50;101228.16;5091672;28;19912;-86
2022/07/15 02:53:03;;;;;;;;;;;;;;;24.92;52.40;101225.47;5059345;28;19912;-86
2022/07/15 02:55:29;;;;;;;;;;;;;;;24.95;52.31;101222.78;5076165;28;20478;-84
2022/07/15 02:57:54;;;;;;;;;;;;;;;24.92;52.72;101224.59;5056384;28;19916;-85
2022/07/15 03:00:20;;;;;;;;;;;;;;;24.91;52.35;101225.47;5089933;28;20438;-85
2022/07/15 03:02:46;;;;;;;;;;;;;;;24.92;52.55;101221.91;5109885;28;19912;-85
2022/07/15 03:05:12;;;;;;;;;;;;;;;24.92;52.42;101225.47;5077143;28;20007;-86
2022/07/15 03:07:37;;;;;;;;;;;;;;;24.89;52.50;101236.16;5094772;28;19931;-86
2022/07/15 03:10:03;;;;;;;;;;;;;;;24.89;52.46;101227.25;5056403;28;19920;-85
2022/07/15 03:12:29;;;;;;;;;;;;;;;24.86;52.52;101227.25;5055673;28;19919;-85
2022/07/15 03:14:54;;;;;;;;;;;;;;;24.85;52.47;101223.69;5072965;28;19912;-85
2022/07/15 03:17:20;;;;;;;;;;;;;;;24.90;52.43;101231.72;5078296;28;19916;-84
2022/07/15 03:19:45;;;;;;;;;;;;;;;24.86;52.53;101238.81;5089353;28;20007;-85
2022/07/15 03:22:10;;;;;;;;;;;;;;;24.85;52.46;101241.47;5079813;28;19912;-86
2022/07/15 03:24:36;;;;;;;;;;;;;;;24.85;52.45;101237.06;5089825;28;19916;-86
2022/07/15 03:27:01;;;;;;;;;;;;;;;24.86;52.51;101240.59;5093668;28;19954;-85
2022/07/15 03:29:28;;;;;;;;;;;;;;;24.87;52.58;101240.63;5059326;28;20452;-85
2022/07/15 03:31:54;;;;;;;;;;;;;;;24.87;52.53;101242.38;5090669;28;19919;-84
2022/07/15 03:34:20;;;;;;;;;;;;;;;24.86;52.68;101237.94;5056748;28;19924;-85
2022/07/15 03:36:45;;;;;;;;;;;;;;;24.87;52.75;101247.72;5105796;28;19916;-85
2022/07/15 03:39:10;;;;;;;;;;;;;;;24.83;52.79;101245.91;5088596;28;19912;-85
2022/07/15 03:41:36;;;;;;;;;;;;;;;24.83;52.73;101248.59;5057165;28;20433;-85
2022/07/15 03:44:02;;;;;;;;;;;;;;;24.81;52.56;101245.94;5085560;28;19941;-85
2022/07/15 03:46:27;;;;;;;;;;;;;;;24.81;52.98;101250.38;5069924;28;20420;-86
2022/07/15 03:48:53;;;;;;;;;;;;;;;24.81;52.61;101240.59;5047621;28;19922;-86
2022/07/15 03:51:18;;;;;;;;;;;;;;;24.82;52.72;101252.16;5073120;28;19920;-86
2022/07/15 03:53:44;;;;;;;;;;;;;;;24.82;52.71;101244.16;5063310;28;19912;-85
2022/07/15 03:56:09;;;;;;;;;;;;;;;24.81;52.63;101245.03;5069502;28;19920;-85
2022/07/15 03:58:34;;;;;;;;;;;;;;;24.79;52.95;101245.03;5057042;28;19916;-85
2022/07/15 04:01:00;;;;;;;;;;;;;;;24.78;52.67;101233.44;5085523;28;20300;-85
2022/07/15 04:03:25;;;;;;;;;;;;;;;24.77;52.74;101241.47;5085620;28;19924;-85
2022/07/15 04:05:51;;;;;;;;;;;;;;;24.77;52.63;101247.69;5054523;28;19986;-86
2022/07/15 04:08:16;;;;;;;;;;;;;;;24.78;52.83;101243.25;5072643;28;20285;-85
2022/07/15 04:10:42;;;;;;;;;;;;;;;24.75;52.72;101246.81;5072486;28;19912;-85
2022/07/15 04:13:07;;;;;;;;;;;;;;;24.74;53.13;101239.69;5066068;28;20331;-85
2022/07/15 04:15:32;;;;;;;;;;;;;;;24.78;53.18;101238.78;5060383;28;20359;-84
2022/07/15 04:17:58;;;;;;;;;;;;;;;24.78;52.77;101238.78;5092308;28;19916;-84
2022/07/15 04:23:08;;;;;;;;;;;;;;;24.74;52.98;101241.44;5068180;28;19920;-84
2022/07/15 04:25:33;;;;;;;;;;;;;;;24.74;52.82;101241.44;5092374;28;19912;-84
2022/07/15 04:27:59;;;;;;;;;;;;;;;24.74;52.80;101233.44;5074051;28;20407;-85
2022/07/15 04:30:24;;;;;;;;;;;;;;;24.74;52.75;101234.34;5073793;28;19962;-84
2022/07/15 04:32:50;;;;;;;;;;;;;;;24.73;53.08;101242.34;5091733;28;20418;-84
2022/07/15 04:35:16;;;;;;;;;;;;;;;24.72;53.17;101240.56;5089373;28;20374;-85
2022/07/15 04:37:41;;;;;;;;;;;;;;;24.72;53.10;101244.13;5087554;28;19928;-85
2022/07/15 04:40:07;;;;;;;;;;;;;;;24.71;52.99;101241.44;5088226;28;19920;-85
2022/07/15 04:42:32;;;;;;;;;;;;;;;24.69;52.86;101246.78;5092773;28;19965;-85
2022/07/15 04:44:58;;;;;;;;;;;;;;;24.69;53.05;101240.56;5053915;28;19919;-84
2022/07/15 04:47:23;;;;;;;;;;;;;;;24.70;52.97;101242.31;5084277;28;20085;-84
2022/07/15 04:52:33;;;;;;;;;;;;;;;24.71;53.17;101233.44;5069295;28;19919;-83
2022/07/15 04:54:58;;;;;;;;;;;;;;;24.69;53.29;101244.09;5054916;28;19913;-82
2022/07/15 04:57:23;;;;;;;;;;;;;;;24.69;53.02;101244.09;5074422;28;19920;-83
2022/07/15 04:59:49;;;;;;;;;;;;;;;24.69;53.34;101236.09;5056545;28;20374;-87
2022/07/15 05:02:14;;;;;;;;;;;;;;;24.65;53.41;101236.09;5071016;28;20039;-84
2022/07/15 05:04:40;;;;;;;;;;;;;;;24.70;53.32;101245.00;5071171;28;19952;-84
2022/07/15 05:07:05;;;;;;;;;;;;;;;24.69;53.48;101236.09;5071150;28;19913;-86
2022/07/15 05:09:31;;;;;;;;;;;;;;;24.69;53.53;101240.56;5071499;28;20011;-85
2022/07/15 05:11:57;;;;;;;;;;;;;;;24.66;53.53;101236.09;5057303;28;19917;-83
2022/07/15 05:14:22;;;;;;;;;;;;;;;24.69;53.55;101246.78;5055883;28;19986;-84
2022/07/15 05:16:48;;;;;;;;;;;;;;;24.69;53.66;101244.09;5056505;28;20046;-85
2022/07/15 05:19:14;;;;;;;;;;;;;;;24.68;53.95;101242.34;5058282;28;19970;-84
2022/07/15 05:21:39;;;;;;;;;;;;;;;24.70;53.63;101245.00;5044824;28;20406;-83
2022/07/15 05:24:04;;;;;;;;;;;;;;;24.67;53.79;101248.56;5069567;28;19919;-84
2022/07/15 05:26:30;;;;;;;;;;;;;;;24.72;53.83;101248.56;5090218;28;19912;-83
2022/07/15 05:28:55;;;;;;;;;;;;;;;24.72;53.83;101245.88;5060106;28;19916;-84
2022/07/15 05:31:22;;;;;;;;;;;;;;;24.72;54.16;101249.47;5091290;28;20388;-84
2022/07/15 05:33:47;;;;;;;;;;;;;;;24.76;54.00;101245.94;5073670;28;19928;-83
2022/07/15 05:36:13;;;;;;;;;;;;;;;24.71;54.04;101237.00;5052314;28;19916;-83
2022/07/15 05:38:39;;;;;;;;;;;;;;;24.72;54.32;101246.81;5075071;28;19970;-84
2022/07/15 05:41:04;;;;;;;;;;;;;;;24.73;54.38;101237.88;5081984;28;19947;-83
2022/07/15 05:43:30;;;;;;;;;;;;;;;24.74;54.08;101241.44;5079240;28;19961;-82
2022/07/15 05:45:56;;;;;;;;;;;;;;;24.75;54.44;101236.13;5081617;28;20409;-82
2022/07/15 05:48:21;;;;;;;;;;;;;;;24.78;54.51;101244.13;5091635;28;19966;-83
2022/07/15 05:50:47;;;;;;;;;;;;;;;24.78;54.47;101237.91;5087937;28;19965;-82
2022/07/15 05:53:12;;;;;;;;;;;;;;;24.79;54.31;101237.91;5074268;28;19969;-83
2022/07/15 05:55:38;;;;;;;;;;;;;;;24.77;54.50;101234.34;5085573;28;19912;-83
2022/07/15 05:58:07;;;;;;;;;;;;;;;24.77;54.40;101229.00;5058191;28;19967;-85
2022/07/15 06:00:33;;;;;;;;;;;;;;;24.80;54.36;101233.44;5078040;28;19920;-83
2022/07/15 06:02:58;;;;;;;;;;;;;;;24.80;54.42;101233.44;5055793;28;19916;-84
2022/07/15 06:05:24;;;;;;;;;;;;;;;24.75;54.56;101233.44;5061661;28;19912;-84
2022/07/15 06:07:49;;;;;;;;;;;;;;;24.75;54.36;101235.22;5066605;28;20389;-84
2022/07/15 06:10:15;;;;;;;;;;;;;;;24.73;54.53;101232.56;5072241;28;19921;-84
2022/07/15 06:12:40;;;;;;;;;;;;;;;24.75;54.52;101235.22;5062537;28;20461;-82
2022/07/15 06:15:06;;;;;;;;;;;;;;;24.72;54.80;101232.53;5087628;28;19941;-84
2022/07/15 06:17:33;;;;;;;;;;;;;;;24.75;54.62;101233.44;5079363;28;19920;-82
2022/07/15 06:19:58;;;;;;;;;;;;;;;24.72;54.68;101230.78;5064074;28;19924;-82
2022/07/15 06:22:27;;;;;;;;;;;;;;;24.73;54.80;101224.53;5070271;28;19916;-84
2022/07/15 06:24:53;;;;;;;;;;;;;;;24.76;54.99;101231.66;5094868;28;19920;-83
2022/07/15 06:27:21;;;;;;;;;;;;;;;24.74;54.83;101230.75;5076611;28;19919;-83
2022/07/15 06:29:47;;;;;;;;;;;;;;;24.72;55.06;101230.78;5076963;28;19912;-82
2022/07/15 06:32:12;;;;;;;;;;;;;;;24.71;55.14;101226.31;5094280;28;19912;-82
2022/07/15 06:34:38;;;;;;;;;;;;;;;24.75;55.10;101225.44;5094002;28;19927;-84
2022/07/15 06:37:05;;;;;;;;;;;;;;;24.72;54.95;101225.44;5089866;28;19985;-83
2022/07/15 06:39:30;;;;;;;;;;;;;;;24.72;55.20;101217.44;5066997;28;19916;-84
2022/07/15 06:41:56;;;;;;;;;;;;;;;24.74;55.09;101207.63;5086697;28;19961;-84
2022/07/15 06:44:21;;;;;;;;;;;;;;;24.77;55.19;101214.75;5081505;28;21417;-85
2022/07/15 06:46:48;;;;;;;;;;;;;;;24.78;55.00;101212.06;5080797;28;20444;-84
2022/07/15 06:49:14;;;;;;;;;;;;;;;24.74;55.14;101210.31;5079543;28;19916;-85
2022/07/15 06:51:40;;;;;;;;;;;;;;;24.77;55.27;101223.66;5093900;28;19916;-84
2022/07/15 06:54:07;;;;;;;;;;;;;;;24.78;55.05;101213.84;5090741;28;20310;-84
2022/07/15 06:56:33;;;;;;;;;;;;;;;24.81;54.98;101213.88;5059225;28;19924;-84
2022/07/15 06:58:59;;;;;;;;;;;;;;;24.85;55.00;101212.09;5098364;28;19930;-84
2022/07/15 07:01:24;;;;;;;;;;;;;;;24.87;55.18;101219.25;5072433;28;19916;-84
2022/07/15 07:03:53;;;;;;;;;;;;;;;24.87;55.08;101213.91;5080249;28;19943;-84
2022/07/15 07:06:19;;;;;;;;;;;;;;;24.83;55.24;101221.88;5058699;28;19917;-83
2022/07/15 07:08:46;;;;;;;;;;;;;;;24.82;55.44;101210.31;5071161;28;19912;-82
2022/07/15 07:11:11;;;;;;;;;;;;;;;24.86;55.29;101214.78;5074925;28;19921;-84
2022/07/15 07:13:37;;;;;;;;;;;;;;;24.84;55.07;101213.88;5072667;28;19916;-87
2022/07/15 07:16:04;;;;;;;;;;;;;;;24.87;55.00;101218.31;5047264;28;19922;-84
2022/07/15 07:18:50;;;;;;;;;;;;;;;24.93;55.10;101219.25;5065011;28;19917;-85
2022/07/15 07:21:17;;;;;;;;;;;;;;;24.93;55.11;101218.34;5081446;28;19924;-86
2022/07/15 07:23:43;;;;;;;;;;;;;;;24.92;55.21;101224.59;5070290;28;20427;-84
2022/07/15 07:26:09;;;;;;;;;;;;;;;24.90;55.21;101221.03;5058579;28;19916;-84
2022/07/15 07:28:35;;;;;;;;;;;;;;;24.90;55.20;101221.03;5072615;28;19976;-85
2022/07/15 07:31:00;;;;;;;;;;;;;;;24.93;55.22;101229.03;5073225;28;19916;-84
2022/07/15 07:33:26;;;;;;;;;;;;;;;24.92;54.96;101221.91;5081505;28;19920;-84
2022/07/15 07:35:51;;;;;;;;;;;;;;;24.92;55.16;101228.16;5088275;28;20022;-84
2022/07/15 07:38:17;;;;;;;;;;;;;;;24.92;55.43;101224.59;5075217;28;19916;-84
2022/07/15 07:40:43;;;;;;;;;;;;;;;24.94;55.35;101230.84;5068382;28;19916;-84
2022/07/15 07:43:08;;;;;;;;;;;;;;;24.98;55.13;101225.50;5067361;28;19923;-84
2022/07/15 07:45:34;;;;;;;;;;;;;;;24.96;55.17;101229.94;5084803;28;19916;-85
2022/07/15 07:47:59;;;;;;;;;;;;;;;24.97;55.21;101225.47;5093596;28;20368;-83
2022/07/15 07:50:25;;;;;;;;;;;;;;;24.99;55.10;101227.25;5094916;28;20004;-85
2022/07/15 07:52:51;;;;;;;;;;;;;;;24.96;55.47;101229.06;5060831;28;19912;-85
2022/07/15 07:55:16;;;;;;;;;;;;;;;24.97;55.72;101225.47;5079416;28;20378;-84
2022/07/15 07:57:56;;;;;;;;;;;;;;;24.96;55.66;101229.06;5078168;28;19916;-85
2022/07/15 08:00:22;;;;;;;;;;;;;;;24.97;55.51;101222.81;5092779;28;19919;-84
2022/07/15 08:02:47;;;;;;;;;;;;;;;25.00;55.40;101233.53;5073155;28;19917;-84
2022/07/15 08:05:14;;;;;;;;;;;;;;;25.01;55.55;101223.72;5067093;28;19998;-83
2022/07/15 08:07:40;;;;;;;;;;;;;;;24.99;55.45;101226.38;5050938;28;19958;-83
2022/07/15 08:10:06;;;;;;;;;;;;;;;24.98;55.72;101222.81;5059290;28;19912;-83
2022/07/15 08:12:34;;;;;;;;;;;;;;;24.97;55.95;101226.38;5054512;28;19969;-84
2022/07/15 08:14:59;;;;;;;;;;;;;;;24.98;55.87;101224.59;5059276;28;19912;-83
2022/07/15 08:17:25;;;;;;;;;;;;;;;24.97;55.86;101221.03;5053859;28;19961;-84
2022/07/15 08:19:50;;;;;;;;;;;;;;;25.05;55.99;101220.16;5071202;28;20305;-83
2022/07/15 08:22:16;;;;;;;;;;;;;;;25.03;55.83;101214.81;5080111;28;19913;-85
2022/07/15 08:24:41;;;;;;;;;;;;;;;24.97;56.39;101218.34;5090459;28;19912;-85
2022/07/15 08:27:08;;;;;;;;;;;;;;;25.04;56.04;101215.69;5062578;28;20381;-86
2022/07/15 08:29:34;;;;;;;;;;;;;;;25.04;55.98;101218.34;5058025;28;19919;-84
2022/07/15 08:32:00;;;;;;;;;;;;;;;25.01;56.20;101221.03;5091428;28;19951;-85
2022/07/15 08:34:25;;;;;;;;;;;;;;;25.04;56.22;101221.03;5077125;28;19967;-85
2022/07/15 08:36:51;;;;;;;;;;;;;;;25.05;56.05;101223.72;5058838;28;20392;-84
2022/07/15 08:39:16;;;;;;;;;;;;;;;25.04;56.06;101219.28;5077851;28;19966;-84
2022/07/15 08:41:44;;;;;;;;;;;;;;;25.06;56.04;101227.28;5064504;28;20209;-83
2022/07/15 08:44:10;;;;;;;;;;;;;;;25.04;56.19;101232.63;5059844;28;19962;-85
2022/07/15 08:46:36;;;;;;;;;;;;;;;25.05;55.84;101226.38;5054371;28;20378;-84
2022/07/15 08:49:06;;;;;;;;;;;;;;;25.05;56.32;101226.38;5079157;28;19916;-84
2022/07/15 08:51:32;;;;;;;;;;;;;;;25.04;56.45;101235.31;5061670;28;19916;-83
2022/07/15 08:53:58;;;;;;;;;;;;;;;25.05;56.57;101230.84;5062459;28;19990;-83
2022/07/15 08:56:24;;;;;;;;;;;;;;;25.04;56.31;101234.41;5059767;28;20390;-84
2022/07/15 08:58:49;;;;;;;;;;;;;;;25.07;56.33;101231.75;5082881;28;19959;-85
2022/07/15 09:01:15;;;;;;;;;;;;;;;25.09;56.50;101230.84;5071772;28;19995;-85
2022/07/15 09:03:41;;;;;;;;;;;;;;;25.06;56.56;101228.19;5093537;28;19924;-85
2022/07/15 09:06:06;;;;;;;;;;;;;;;25.08;56.29;101234.44;5087138;28;19912;-84
2022/07/15 09:08:34;;;;;;;;;;;;;;;25.09;56.48;101232.63;5078513;28;19917;-84
2022/07/15 09:11:00;;;;;;;;;;;;;;;25.08;56.63;101234.44;5059825;28;19916;-85
2022/07/15 09:13:29;;;;;;;;;;;;;;;25.08;56.62;101231.75;5064669;28;19916;-84
2022/07/15 09:15:55;;;;;;;;;;;;;;;25.11;56.65;101230.88;5071683;28;19958;-84
2022/07/15 09:18:21;;;;;;;;;;;;;;;25.12;56.36;101230.84;5059068;28;19959;-83
2022/07/15 09:20:47;;;;;;;;;;;;;;;25.07;56.50;101232.63;5053892;28;20404;-85
2022/07/15 09:23:20;;;;;;;;;;;;;;;25.06;56.72;101225.50;5078651;28;20007;-84
2022/07/15 09:25:46;;;;;;;;;;;;;;;25.10;56.71;101224.59;5073959;28;19993;-86
2022/07/15 09:28:11;;;;;;;;;;;;;;;25.11;57.04;101228.19;5061358;28;19966;-87
2022/07/15 09:36:23;;;;;;;;;;;;;;;25.14;56.46;101228.19;5051133;28;19987;-85
2022/07/15 09:38:57;;;;;;;;;;;;;;;25.16;56.48;101234.41;5085391;28;20412;-84
2022/07/15 09:41:27;;;;;;;;;;;;;;;25.14;56.69;101226.38;5079092;28;20061;-85
2022/07/15 09:43:54;;;;;;;;;;;;;;;25.17;56.43;101234.44;5053092;28;19913;-84
2022/07/15 09:46:20;;;;;;;;;;;;;;;25.18;56.93;101228.19;5054272;28;19966;-84
2022/07/15 09:48:47;;;;;;;;;;;;;;;25.18;56.70;101230.84;5053022;28;19912;-85
2022/07/15 09:51:13;;;;;;;;;;;;;;;25.18;56.87;101221.94;5076605;28;20015;-84
2022/07/15 09:53:47;;;;;;;;;;;;;;;25.19;57.35;101224.63;5061608;28;20006;-84
2022/07/15 09:56:14;;;;;;;;;;;;;;;25.23;56.82;101216.63;5047387;28;19936;-87
2022/07/15 09:58:40;;;;;;;;;;;;;;;25.24;56.77;101218.44;5067115;28;19917;-88
2022/07/15 10:01:09;;;;;;;;;;;;;;;25.24;56.58;101218.44;5058874;28;19931;-87
2022/07/15 10:03:35;;;;;;;;;;;;;;;25.25;57.10;101218.44;5080303;28;19916;-86
2022/07/15 10:06:01;;;;;;;;;;;;;;;25.22;56.96;101210.41;5061607;28;19916;-85
2022/07/15 10:08:27;;;;;;;;;;;;;;;25.19;56.74;101213.94;5054730;28;19916;-87
2022/07/15 10:10:55;;;;;;;;;;;;;;;25.21;57.42;101213.97;5062327;28;19999;-88
2022/07/15 10:13:34;;;;;;;;;;;;;;;25.24;57.85;101208.63;5053135;28;19955;-87
2022/07/15 10:16:02;;;;;;;;;;;;;;;25.26;57.03;101205.97;5058757;28;20305;-87
2022/07/15 10:18:46;;;;;;;;;;;;;;;25.23;57.95;101206.84;5059075;28;19992;-88
2022/07/15 10:21:20;;;;;;;;;;;;;;;25.29;57.55;101205.94;5047590;28;19912;-88
2022/07/15 10:24:05;;;;;;;;;;;;;;;25.26;57.69;101192.59;5069532;28;20432;-86
2022/07/15 10:26:42;;;;;;;;;;;;;;;25.30;57.51;101202.41;5071399;28;19912;-88
2022/07/15 10:29:08;;;;;;;;;;;;;;;25.31;57.25;101202.38;5076618;28;19926;-88
2022/07/15 10:31:45;;;;;;;;;;;;;;;25.30;57.46;101197.94;5064756;28;19919;-86
2022/07/15 10:34:14;;;;;;;;;;;;;;;25.32;57.25;101204.19;5053297;28;19925;-86
2022/07/15 10:36:46;;;;;;;;;;;;;;;25.32;57.58;101201.50;5095461;28;20423;-87
2022/07/15 10:39:11;;;;;;;;;;;;;;;25.34;57.03;101194.38;5054483;28;19917;-85
2022/07/15 10:41:52;;;;;;;;;;;;;;;25.36;57.08;101191.72;5087083;28;20313;-88
2022/07/15 10:44:18;;;;;;;;;;;;;;;25.33;57.47;101191.69;5053709;28;19921;-87
2022/07/15 10:46:43;;;;;;;;;;;;;;;25.35;57.17;101198.81;5090637;28;19927;-87
2022/07/15 10:49:12;;;;;;;;;;;;;;;25.31;57.27;101189.00;5062403;28;19920;-87
2022/07/15 10:51:37;;;;;;;;;;;;;;;25.32;57.21;101189.94;5061737;28;19920;-87
2022/07/15 10:54:03;;;;;;;;;;;;;;;25.33;57.68;101191.69;5062644;28;20301;-86
2022/07/15 10:56:30;;;;;;;;;;;;;;;25.36;57.10;101195.28;5108680;28;19920;-86
2022/07/15 10:59:14;;;;;;;;;;;;;;;25.38;57.27;101193.50;5065545;28;20400;-86
2022/07/15 11:01:50;;;;;;;;;;;;;;;25.38;57.12;101190.81;5052451;28;19936;-87
2022/07/15 11:04:17;;;;;;;;;;;;;;;25.37;57.25;101194.34;5074320;28;19978;-88
2022/07/15 11:07:01;;;;;;;;;;;;;;;25.35;57.22;101193.47;5060370;28;20016;-86
2022/07/15 11:09:45;;;;;;;;;;;;;;;25.36;57.78;101187.25;5053052;28;19917;-88
2022/07/15 11:12:11;;;;;;;;;;;;;;;25.41;57.14;101173.00;5059902;28;19987;-87
2022/07/15 11:14:47;;;;;;;;;;;;;;;25.39;57.32;101168.50;5048297;28;19916;-87
2022/07/15 11:17:24;;;;;;;;;;;;;;;;;;;;;
2022/07/15 11:19:51;;;;;;;;;;;;;;;25.42;57.71;101174.75;5062622;28;19912;-86
2022/07/15 11:22:17;;;;;;;;;;;;;;;25.46;57.90;101174.75;5071850;28;19956;-87
2022/07/15 11:24:43;;;;;;;;;;;;;;;25.44;57.58;101172.97;5060467;28;19916;-85
2022/07/15 11:27:09;;;;;;;;;;;;;;;25.45;57.39;101172.97;5054606;28;19967;-85
2022/07/15 11:29:45;;;;;;;;;;;;;;;25.47;57.67;101173.88;5108210;27;20385;-86
2022/07/15 11:32:12;;;;;;;;;;;;;;;25.47;58.05;101173.88;5089507;28;19939;-84
2022/07/15 11:34:42;;;;;;;;;;;;;;;25.48;57.90;101172.97;5074592;28;19951;-83
2022/07/15 11:37:07;;;;;;;;;;;;;;;25.49;57.72;101174.75;5059285;28;19917;-84
2022/07/15 11:39:33;;;;;;;;;;;;;;;25.49;57.88;101174.75;5056810;28;19942;-85
2022/07/15 11:44:47;;;;;;;;;;;;;;;25.54;57.66;101172.94;5072656;28;19913;-84
2022/07/15 11:47:28;;;;;;;;;;;;;;;;;;;;;
2022/07/15 11:50:04;;;;;;;;;;;;;;;25.55;57.83;101173.88;5089064;28;19913;-85
2022/07/15 11:52:30;;;;;;;;;;;;;;;25.57;57.69;101167.63;5073175;28;20361;-84
2022/07/15 11:54:56;;;;;;;;;;;;;;;25.58;57.63;101168.50;5059397;28;20394;-83
2022/07/15 11:57:22;;;;;;;;;;;;;;;25.55;57.59;101164.06;5094173;28;19920;-83
2022/07/15 11:59:59;;;;;;;;;;;;;;;25.57;57.61;101167.63;5051961;28;19913;-84
2022/07/15 12:02:25;;;;;;;;;;;;;;;25.58;57.81;101171.19;5083892;28;19919;-83
2022/07/15 12:04:51;;;;;;;;;;;;;;;25.60;57.76;101167.59;5061357;28;20023;-86
2022/07/15 12:07:17;;;;;;;;;;;;;;;25.56;57.52;101162.25;5075694;28;20024;-85
2022/07/15 12:09:45;;;;;;;;;;;;;;;25.56;57.57;101167.63;5060931;28;20457;-85
2022/07/15 12:12:30;;;;;;;;;;;;;;;25.56;57.25;101162.25;5090089;28;19956;-86
2022/07/15 12:14:55;;;;;;;;;;;;;;;25.55;57.08;101164.06;5067221;28;19912;-84
2022/07/15 12:17:21;;;;;;;;;;;;;;;25.57;56.67;101164.94;5062978;28;19985;-84
2022/07/15 12:19:48;;;;;;;;;;;;;;;25.54;56.84;101164.06;5057860;28;20004;-85
2022/07/15 12:22:13;;;;;;;;;;;;;;;25.55;56.28;101156.03;5090637;28;19941;-84
2022/07/15 12:24:44;;;;;;;;;;;;;;;25.50;56.56;101156.91;5094380;28;19916;-86
2022/07/15 12:27:19;;;;;;;;;;;;;;;25.55;56.51;101155.16;5064494;28;19916;-86
2022/07/15 12:29:52;;;;;;;;;;;;;;;25.53;56.29;101151.59;5076409;28;19920;-87
2022/07/15 12:32:47;;;;;;;;;;;;;;;25.50;56.55;101144.44;5077813;28;19912;-84
2022/07/15 12:35:12;;;;;;;;;;;;;;;25.56;56.55;101143.53;5053999;28;20344;-84
2022/07/15 12:37:48;;;;;;;;;;;;;;;25.58;56.46;101155.13;5075297;28;20374;-85
2022/07/15 12:40:14;;;;;;;;;;;;;;;25.59;55.92;101157.81;5063362;28;20408;-84
2022/07/15 12:42:44;;;;;;;;;;;;;;;25.61;56.01;101152.44;5086809;28;19920;-82
2022/07/15 12:45:09;;;;;;;;;;;;;;;25.64;55.93;101154.25;5067338;28;20406;-84
2022/07/15 12:47:36;;;;;;;;;;;;;;;25.63;55.93;101158.69;5069364;28;20374;-85
2022/07/15 12:50:02;;;;;;;;;;;;;;;25.60;56.06;101156.03;5078742;28;19928;-85